createdAt,value
2023-04-22T00:00:25.778Z,99.90
2023-04-22T00:03:12.918Z,99.90
2023-04-22T00:05:42.148Z,99.90
2023-04-22T00:08:09.302Z,99.90
2023-04-22T00:10:36.927Z,99.90
2023-04-22T00:13:03.965Z,99.90
2023-04-22T00:15:31.483Z,99.90
2023-04-22T00:17:59.075Z,99.90
2023-04-22T00:20:26.518Z,99.90
2023-04-22T00:22:53.590Z,99.90
2023-04-22T00:25:21.022Z,99.90
2023-04-22T00:27:48.073Z,99.90
2023-04-22T00:30:15.652Z,99.90
2023-04-22T00:32:42.787Z,99.90
2023-04-22T00:35:10.295Z,99.90
2023-04-22T00:37:37.550Z,99.90
2023-04-22T00:40:06.883Z,99.90
2023-04-22T00:42:34.254Z,99.90
2023-04-22T00:45:02.150Z,99.90
2023-04-22T00:47:30.543Z,99.90
2023-04-22T00:50:00.443Z,99.90
2023-04-22T00:52:27.594Z,99.90
2023-04-22T00:54:55.128Z,99.90
2023-04-22T00:57:22.500Z,99.90
2023-04-22T00:59:50.635Z,99.90
2023-04-22T01:02:18.678Z,99.90
2023-04-22T01:04:47.055Z,99.90
2023-04-22T01:07:14.138Z,99.90
2023-04-22T01:09:41.831Z,99.90
2023-04-22T01:12:09.211Z,99.90
2023-04-22T01:14:37.152Z,99.90
2023-04-22T01:17:04.628Z,99.90
2023-04-22T01:19:32.956Z,99.90
2023-04-22T01:22:02.213Z,99.90
2023-04-22T01:24:29.564Z,99.90
2023-04-22T01:26:56.683Z,99.90
2023-04-22T01:29:24.807Z,99.90
2023-04-22T01:31:52.140Z,99.90
2023-04-22T01:34:19.650Z,99.90
2023-04-22T01:36:46.839Z,99.90
2023-04-22T01:39:14.406Z,99.90
2023-04-22T01:41:42.070Z,99.90
2023-04-22T01:44:09.470Z,99.90
2023-04-22T01:46:36.752Z,99.90
2023-04-22T01:49:04.214Z,99.90
2023-04-22T01:51:31.684Z,99.90
2023-04-22T01:53:59.229Z,99.90
2023-04-22T01:56:26.221Z,99.90
2023-04-22T01:58:53.562Z,99.90
2023-04-22T02:01:20.848Z,99.90
2023-04-22T02:03:48.370Z,99.90
2023-04-22T02:06:15.607Z,99.90
2023-04-22T02:08:42.983Z,99.90
2023-04-22T02:11:10.051Z,99.90
2023-04-22T02:13:38.709Z,99.90
2023-04-22T02:16:06.456Z,99.90
2023-04-22T02:18:34.012Z,99.90
2023-04-22T02:21:01.061Z,99.90
2023-04-22T02:23:28.972Z,99.90
2023-04-22T02:25:56.278Z,99.90
2023-04-22T02:28:23.772Z,99.90
2023-04-22T02:30:51.544Z,99.90
2023-04-22T02:33:18.863Z,99.90
2023-04-22T02:35:46.189Z,99.90
2023-04-22T02:38:18.727Z,99.90
2023-04-22T02:40:45.956Z,99.90
2023-04-22T02:43:13.381Z,99.90
2023-04-22T02:45:41.049Z,99.90
2023-04-22T02:48:08.760Z,99.90
2023-04-22T02:50:36.510Z,99.90
2023-04-22T02:53:04.174Z,99.90
2023-04-22T02:55:31.195Z,99.90
2023-04-22T02:57:58.662Z,99.90
2023-04-22T03:00:25.925Z,99.90
2023-04-22T03:02:54.105Z,99.90
2023-04-22T03:05:25.960Z,99.90
2023-04-22T03:07:53.887Z,99.90
2023-04-22T03:10:21.414Z,99.90
2023-04-22T03:12:49.102Z,99.90
2023-04-22T03:15:18.808Z,99.90
2023-04-22T03:17:48.116Z,99.90
2023-04-22T03:20:16.609Z,99.90
2023-04-22T03:22:43.915Z,99.90
2023-04-22T03:25:12.906Z,99.90
2023-04-22T03:27:41.026Z,99.90
2023-04-22T03:30:08.478Z,99.90
2023-04-22T03:32:36.084Z,99.90
2023-04-22T03:35:15.874Z,99.90
2023-04-22T03:37:44.081Z,99.90
2023-04-22T03:40:14.000Z,99.90
2023-04-22T03:42:42.014Z,99.90
2023-04-22T03:45:09.548Z,99.90
2023-04-22T03:47:42.069Z,99.90
2023-04-22T03:50:19.386Z,99.90
2023-04-22T03:52:48.294Z,99.90
2023-04-22T03:55:19.026Z,99.90
2023-04-22T03:57:47.592Z,99.90
2023-04-22T04:00:14.817Z,99.90
2023-04-22T04:02:45.499Z,99.90
2023-04-22T04:05:16.855Z,99.90
2023-04-22T04:07:44.507Z,99.90
2023-04-22T04:10:13.209Z,99.90
2023-04-22T04:12:40.614Z,99.90
2023-04-22T04:15:08.590Z,99.90
2023-04-22T04:17:36.990Z,99.90
2023-04-22T04:20:07.188Z,99.90
2023-04-22T04:22:36.155Z,99.90
2023-04-22T04:25:08.208Z,99.90
2023-04-22T04:27:41.638Z,99.90
2023-04-22T04:30:11.719Z,99.90
2023-04-22T04:32:45.720Z,99.90
2023-04-22T04:35:15.326Z,99.90
2023-04-22T04:37:47.599Z,99.90
2023-04-22T04:40:15.485Z,99.90
2023-04-22T04:42:49.081Z,99.90
2023-04-22T04:45:22.448Z,99.90
2023-04-22T04:47:54.694Z,99.90
2023-04-22T04:50:30.474Z,99.90
2023-04-22T04:53:02.418Z,99.90
2023-04-22T04:55:41.593Z,99.90
2023-04-22T04:58:16.772Z,99.90
2023-04-22T05:00:44.231Z,99.90
2023-04-22T05:03:12.653Z,99.90
2023-04-22T05:05:40.316Z,99.90
2023-04-22T05:08:07.738Z,99.90
2023-04-22T05:10:37.490Z,99.90
2023-04-22T05:13:05.221Z,99.90
2023-04-22T05:15:33.229Z,99.90
2023-04-22T05:18:00.771Z,99.90
2023-04-22T05:20:28.085Z,99.90
2023-04-22T05:22:56.532Z,99.90
2023-04-22T05:25:23.797Z,99.90
2023-04-22T05:27:58.556Z,99.90
2023-04-22T05:30:29.552Z,99.90
2023-04-22T05:32:57.084Z,99.90
2023-04-22T05:35:24.696Z,99.90
2023-04-22T05:37:52.475Z,99.90
2023-04-22T05:40:19.911Z,99.90
2023-04-22T05:42:47.562Z,99.90
2023-04-22T05:45:15.766Z,99.90
2023-04-22T05:47:43.426Z,99.90
2023-04-22T05:50:11.251Z,99.90
2023-04-22T05:52:47.184Z,99.90
2023-04-22T05:55:18.749Z,99.90
2023-04-22T05:57:46.165Z,99.90
2023-04-22T06:00:25.824Z,99.90
2023-04-22T06:03:08.957Z,99.90
2023-04-22T06:05:36.353Z,99.90
2023-04-22T06:08:03.965Z,99.90
2023-04-22T06:10:31.172Z,99.90
2023-04-22T06:12:58.472Z,99.90
2023-04-22T06:15:26.210Z,99.90
2023-04-22T06:17:54.071Z,99.90
2023-04-22T06:20:21.378Z,99.90
2023-04-22T06:22:48.788Z,99.90
2023-04-22T06:25:16.150Z,99.90
2023-04-22T06:27:43.463Z,99.90
2023-04-22T06:30:12.032Z,99.90
2023-04-22T06:32:40.563Z,99.90
2023-04-22T06:35:08.316Z,99.90
2023-04-22T06:37:36.825Z,99.90
2023-04-22T06:40:07.228Z,99.90
2023-04-22T06:42:57.157Z,99.90
2023-04-22T06:45:50.827Z,99.90
2023-04-22T06:48:44.391Z,99.90
2023-04-22T06:51:31.993Z,99.90
2023-04-22T06:53:59.924Z,99.90
2023-04-22T06:56:27.043Z,99.90
2023-04-22T06:58:55.268Z,99.90
2023-04-22T07:01:22.511Z,99.90
2023-04-22T07:03:49.964Z,99.90
2023-04-22T07:06:17.139Z,99.90
2023-04-22T07:08:44.866Z,99.90
2023-04-22T07:11:14.276Z,99.90
2023-04-22T07:14:00.562Z,99.90
2023-04-22T07:16:28.667Z,99.90
2023-04-22T07:18:56.077Z,99.90
2023-04-22T07:21:23.266Z,99.90
2023-04-22T07:23:51.845Z,99.90
2023-04-22T07:26:19.148Z,99.90
2023-04-22T07:28:46.579Z,99.90
2023-04-22T07:31:13.642Z,99.90
2023-04-22T07:33:40.953Z,99.90
2023-04-22T07:36:08.246Z,99.90
2023-04-22T07:38:38.449Z,98.90
2023-04-22T07:41:05.641Z,98.60
2023-04-22T07:43:33.058Z,97.50
2023-04-22T07:46:00.252Z,97.00
2023-04-22T07:48:27.679Z,95.90
2023-04-22T07:50:54.700Z,95.80
2023-04-22T07:53:22.043Z,95.50
2023-04-22T07:55:49.803Z,95.30
2023-04-22T07:58:17.454Z,95.10
2023-04-22T08:00:44.562Z,94.70
2023-04-22T08:03:12.214Z,93.90
2023-04-22T08:05:39.574Z,93.10
2023-04-22T08:08:07.731Z,91.80
2023-04-22T08:10:34.805Z,90.90
2023-04-22T08:13:02.365Z,90.10
2023-04-22T08:15:29.573Z,88.60
2023-04-22T08:17:56.977Z,86.20
2023-04-22T08:20:25.662Z,86.00
2023-04-22T08:22:57.281Z,83.30
2023-04-22T08:25:28.241Z,82.90
2023-04-22T08:27:55.652Z,81.90
2023-04-22T08:30:22.767Z,79.40
2023-04-22T08:32:50.228Z,79.40
2023-04-22T08:35:17.561Z,78.10
2023-04-22T08:37:45.115Z,77.40
2023-04-22T08:40:12.278Z,76.30
2023-04-22T08:42:40.546Z,73.70
2023-04-22T08:45:09.828Z,73.50
2023-04-22T08:47:39.398Z,73.70
2023-04-22T08:50:07.361Z,73.90
2023-04-22T08:52:34.849Z,72.00
2023-04-22T08:55:02.097Z,72.10
2023-04-22T08:57:30.353Z,72.20
2023-04-22T08:59:57.915Z,72.10
2023-04-22T09:02:26.923Z,71.00
2023-04-22T09:04:54.261Z,70.00
2023-04-22T09:07:27.384Z,69.70
2023-04-22T09:09:58.392Z,69.20
2023-04-22T09:12:26.150Z,68.80
2023-04-22T09:14:54.504Z,67.60
2023-04-22T09:17:37.256Z,67.30
2023-04-22T09:20:07.104Z,67.10
2023-04-22T09:22:48.632Z,64.40
2023-04-22T09:25:20.398Z,65.00
2023-04-22T09:27:51.798Z,65.90
2023-04-22T09:30:28.200Z,65.20
2023-04-22T09:32:59.167Z,65.70
2023-04-22T09:35:28.675Z,64.00
2023-04-22T09:37:56.782Z,63.60
2023-04-22T09:40:24.820Z,63.40
2023-04-22T09:42:54.982Z,63.10
2023-04-22T09:45:29.378Z,63.60
2023-04-22T09:47:59.759Z,62.20
2023-04-22T09:50:28.243Z,62.60
2023-04-22T09:53:08.432Z,61.90
2023-04-22T09:55:39.650Z,60.40
2023-04-22T09:58:12.306Z,59.70
2023-04-22T10:00:45.129Z,60.00
2023-04-22T10:03:12.758Z,60.10
2023-04-22T10:05:41.264Z,58.90
2023-04-22T10:08:10.431Z,59.30
2023-04-22T10:10:38.185Z,57.80
2023-04-22T10:13:06.722Z,58.80
2023-04-22T10:15:37.800Z,58.50
2023-04-22T10:18:07.813Z,56.10
2023-04-22T10:20:40.494Z,57.50
2023-04-22T10:23:15.004Z,57.40
2023-04-22T10:25:42.222Z,58.50
2023-04-22T10:28:11.075Z,57.40
2023-04-22T10:30:39.600Z,57.30
2023-04-22T10:33:40.617Z,57.20
2023-04-22T10:36:09.715Z,54.90
2023-04-22T10:38:57.311Z,53.30
2023-04-22T10:41:31.309Z,53.60
2023-04-22T10:44:00.953Z,51.60
2023-04-22T10:46:31.818Z,49.40
2023-04-22T10:49:06.863Z,47.80
2023-04-22T10:51:43.897Z,47.80
2023-04-22T10:54:29.354Z,47.30
2023-04-22T10:57:02.180Z,47.90
2023-04-22T10:59:34.133Z,47.50
2023-04-22T11:02:06.303Z,47.50
2023-04-22T11:04:34.080Z,48.00
2023-04-22T11:07:29.692Z,48.50
2023-04-22T11:10:05.564Z,48.70
2023-04-22T11:12:35.863Z,49.10
2023-04-22T11:15:10.074Z,49.30
2023-04-22T11:17:38.352Z,49.50
2023-04-22T11:20:07.880Z,50.20
2023-04-22T11:22:55.561Z,51.00
2023-04-22T11:25:27.443Z,50.30
2023-04-22T11:27:56.653Z,50.30
2023-04-22T11:30:26.028Z,50.90
2023-04-22T11:32:55.909Z,51.00
2023-04-22T11:35:31.778Z,50.90
2023-04-22T11:37:59.872Z,50.50
2023-04-22T11:40:32.793Z,49.70
2023-04-22T11:43:03.631Z,49.80
2023-04-22T11:45:32.560Z,49.40
2023-04-22T11:48:00.600Z,49.70
2023-04-22T11:50:30.467Z,49.40
2023-04-22T11:53:03.540Z,49.80
2023-04-22T11:55:33.965Z,49.80
2023-04-22T11:58:02.040Z,49.50
2023-04-22T12:00:37.310Z,49.50
2023-04-22T12:03:16.680Z,49.60
2023-04-22T12:05:45.611Z,49.60
2023-04-22T12:08:15.113Z,50.30
2023-04-22T12:10:51.798Z,50.30
2023-04-22T12:13:30.380Z,49.90
2023-04-22T12:16:01.224Z,50.50
2023-04-22T12:18:32.389Z,50.20
2023-04-22T12:21:02.371Z,50.00
2023-04-22T12:23:29.502Z,48.40
2023-04-22T12:25:57.373Z,48.40
2023-04-22T12:28:24.498Z,49.60
2023-04-22T12:30:51.874Z,49.60
2023-04-22T12:33:18.896Z,49.20
2023-04-22T12:35:47.151Z,48.60
2023-04-22T12:38:14.430Z,48.80
2023-04-22T12:40:41.874Z,48.90
2023-04-22T12:43:08.970Z,48.90
2023-04-22T12:45:36.428Z,49.20
2023-04-22T12:48:03.792Z,48.40
2023-04-22T12:50:31.232Z,49.20
2023-04-22T12:52:58.354Z,48.90
2023-04-22T12:55:26.083Z,47.80
2023-04-22T12:57:53.675Z,46.70
2023-04-22T13:00:21.094Z,46.10
2023-04-22T13:02:49.321Z,45.80
2023-04-22T13:05:18.278Z,46.00
2023-04-22T13:07:50.734Z,46.90
2023-04-22T13:10:28.349Z,46.40
2023-04-22T13:13:03.105Z,45.70
2023-04-22T13:15:37.740Z,45.60
2023-04-22T13:18:04.921Z,46.70
2023-04-22T13:20:32.347Z,45.50
2023-04-22T13:22:59.455Z,45.90
2023-04-22T13:25:26.976Z,46.50
2023-04-22T13:27:54.080Z,45.10
2023-04-22T13:30:21.540Z,44.20
2023-04-22T13:32:48.890Z,44.10
2023-04-22T13:35:18.386Z,44.40
2023-04-22T13:37:46.791Z,44.60
2023-04-22T13:40:20.151Z,45.00
2023-04-22T13:42:47.308Z,45.20
2023-04-22T13:45:16.131Z,45.60
2023-04-22T13:47:43.196Z,45.70
2023-04-22T13:50:11.093Z,46.00
2023-04-22T13:52:38.171Z,46.50
2023-04-22T13:55:06.161Z,46.70
2023-04-22T13:57:33.230Z,47.10
2023-04-22T14:00:03.698Z,47.40
2023-04-22T14:02:39.045Z,47.60
2023-04-22T14:05:07.572Z,47.90
2023-04-22T14:07:34.863Z,47.90
2023-04-22T14:10:02.532Z,47.90
2023-04-22T14:12:29.613Z,48.30
2023-04-22T14:14:57.093Z,48.70
2023-04-22T14:17:29.598Z,49.00
2023-04-22T14:20:05.217Z,49.20
2023-04-22T14:22:39.594Z,49.40
2023-04-22T14:25:08.928Z,49.40
2023-04-22T14:27:36.454Z,50.10
2023-04-22T14:30:08.368Z,50.10
2023-04-22T14:32:36.173Z,49.50
2023-04-22T14:35:03.737Z,50.00
2023-04-22T14:37:32.067Z,50.80
2023-04-22T14:40:00.399Z,51.00
2023-04-22T14:42:28.255Z,49.80
2023-04-22T14:44:56.680Z,48.80
2023-04-22T14:47:30.179Z,48.30
2023-04-22T14:49:57.677Z,47.70
2023-04-22T14:52:24.845Z,46.90
2023-04-22T14:54:52.321Z,46.80
2023-04-22T14:57:19.520Z,47.00
2023-04-22T14:59:48.271Z,47.30
2023-04-22T15:02:16.077Z,47.30
2023-04-22T15:04:44.169Z,47.50
2023-04-22T15:07:11.349Z,47.40
2023-04-22T15:09:39.157Z,47.50
2023-04-22T15:12:06.635Z,47.50
2023-04-22T15:14:35.680Z,48.30
2023-04-22T15:17:03.612Z,47.80
2023-04-22T15:19:31.244Z,48.20
2023-04-22T15:21:58.329Z,48.50
2023-04-22T15:24:25.775Z,48.30
2023-04-22T15:26:53.948Z,48.00
2023-04-22T15:29:21.536Z,47.00
2023-04-22T15:31:48.853Z,46.70
2023-04-22T15:34:16.402Z,46.50
2023-04-22T15:36:43.577Z,45.20
2023-04-22T15:39:11.900Z,44.50
2023-04-22T15:41:38.995Z,44.50
2023-04-22T15:44:08.602Z,44.70
2023-04-22T15:46:37.210Z,43.70
2023-04-22T15:49:05.188Z,43.10
2023-04-22T15:51:32.629Z,42.30
2023-04-22T15:54:00.151Z,42.80
2023-04-22T15:56:29.430Z,42.00
2023-04-22T15:58:56.782Z,42.20
2023-04-22T16:01:23.946Z,42.60
2023-04-22T16:03:51.458Z,42.40
2023-04-22T16:06:19.186Z,42.90
2023-04-22T16:08:47.435Z,42.70
2023-04-22T16:11:19.401Z,42.80
2023-04-22T16:13:47.209Z,42.80
2023-04-22T16:16:14.267Z,42.20
2023-04-22T16:18:44.199Z,42.40
2023-04-22T16:21:11.763Z,42.30
2023-04-22T16:23:42.252Z,42.40
2023-04-22T16:26:09.619Z,42.50
2023-04-22T16:28:36.941Z,42.60
2023-04-22T16:31:06.832Z,43.20
2023-04-22T16:33:36.928Z,42.80
2023-04-22T16:36:06.691Z,43.40
2023-04-22T16:38:34.256Z,42.80
2023-04-22T16:41:01.465Z,42.90
2023-04-22T16:43:28.943Z,43.20
2023-04-22T16:45:56.166Z,43.30
2023-04-22T16:48:23.587Z,43.60
2023-04-22T16:50:52.668Z,43.90
2023-04-22T16:53:20.057Z,43.80
2023-04-22T16:55:47.138Z,44.00
2023-04-22T16:58:14.508Z,44.10
2023-04-22T17:00:41.734Z,44.40
2023-04-22T17:03:09.297Z,44.70
2023-04-22T17:05:39.581Z,44.80
2023-04-22T17:08:06.898Z,45.00
2023-04-22T17:10:34.809Z,45.50
2023-04-22T17:13:03.091Z,45.80
2023-04-22T17:15:30.266Z,46.10
2023-04-22T17:17:57.784Z,46.40
2023-04-22T17:20:25.172Z,46.70
2023-04-22T17:22:52.568Z,47.00
2023-04-22T17:25:19.712Z,47.30
2023-04-22T17:27:47.011Z,47.50
2023-04-22T17:30:14.372Z,47.90
2023-04-22T17:32:41.770Z,48.10
2023-04-22T17:35:09.674Z,48.40
2023-04-22T17:37:37.213Z,48.50
2023-04-22T17:40:04.975Z,48.80
2023-04-22T17:42:44.739Z,49.20
2023-04-22T17:45:13.412Z,49.30
2023-04-22T17:47:40.827Z,49.40
2023-04-22T17:50:08.525Z,49.70
2023-04-22T17:52:36.119Z,50.00
2023-04-22T17:55:05.382Z,50.30
2023-04-22T17:57:32.941Z,50.70
2023-04-22T18:00:00.134Z,51.00
2023-04-22T18:02:27.899Z,51.20
2023-04-22T18:04:55.246Z,51.30
2023-04-22T18:07:22.950Z,52.00
2023-04-22T18:09:49.936Z,52.10
2023-04-22T18:12:17.628Z,52.40
2023-04-22T18:14:44.794Z,52.70
2023-04-22T18:17:13.585Z,52.90
2023-04-22T18:19:41.117Z,53.30
2023-04-22T18:22:08.859Z,53.60
2023-04-22T18:24:36.576Z,54.00
2023-04-22T18:27:04.139Z,54.30
2023-04-22T18:29:31.918Z,54.50
2023-04-22T18:31:59.297Z,54.90
2023-04-22T18:34:26.580Z,55.20
2023-04-22T18:36:53.935Z,55.50
2023-04-22T18:39:21.739Z,55.80
2023-04-22T18:41:49.563Z,56.30
2023-04-22T18:44:16.641Z,56.70
2023-04-22T18:46:44.164Z,57.20
2023-04-22T18:49:11.362Z,57.70
2023-04-22T18:51:41.304Z,58.20
2023-04-22T18:54:09.110Z,58.60
2023-04-22T18:56:36.669Z,58.90
2023-04-22T18:59:03.745Z,59.00
2023-04-22T19:01:31.171Z,59.30
2023-04-22T19:04:01.629Z,59.60
2023-04-22T19:06:29.426Z,60.10
2023-04-22T19:08:56.921Z,60.40
2023-04-22T19:11:24.466Z,60.80
2023-04-22T19:13:53.601Z,61.20
2023-04-22T19:16:23.071Z,61.60
2023-04-22T19:18:51.382Z,62.10
2023-04-22T19:21:19.811Z,62.40
2023-04-22T19:23:47.205Z,62.90
2023-04-22T19:26:14.658Z,63.40
2023-04-22T19:28:47.085Z,63.90
2023-04-22T19:31:17.351Z,64.50
2023-04-22T19:33:47.979Z,65.10
2023-04-22T19:36:15.372Z,65.80
2023-04-22T19:38:43.359Z,66.40
2023-04-22T19:41:11.656Z,67.30
2023-04-22T19:43:40.418Z,67.80
2023-04-22T19:46:07.841Z,68.10
2023-04-22T19:48:36.200Z,68.40
2023-04-22T19:51:05.197Z,69.20
2023-04-22T19:53:33.179Z,69.90
2023-04-22T19:56:00.911Z,70.80
2023-04-22T19:58:31.628Z,71.70
2023-04-22T20:00:59.198Z,72.70
2023-04-22T20:03:27.195Z,74.10
2023-04-22T20:05:55.321Z,75.50
2023-04-22T20:08:25.901Z,76.80
2023-04-22T20:10:54.908Z,78.00
2023-04-22T20:13:22.599Z,79.00
2023-04-22T20:15:50.357Z,80.70
2023-04-22T20:18:17.769Z,82.70
2023-04-22T20:20:48.536Z,84.60
2023-04-22T20:23:17.539Z,86.70
2023-04-22T20:25:45.691Z,88.70
2023-04-22T20:28:13.224Z,90.50
2023-04-22T20:30:40.847Z,91.40
2023-04-22T20:33:12.055Z,92.30
2023-04-22T20:35:40.558Z,93.50
2023-04-22T20:38:13.233Z,95.50
2023-04-22T20:40:42.171Z,97.70
2023-04-22T20:43:09.275Z,99.50
2023-04-22T20:45:36.779Z,99.90
2023-04-22T20:48:03.853Z,99.90
2023-04-22T20:50:33.535Z,99.90
2023-04-22T20:53:01.304Z,99.90
2023-04-22T20:55:28.561Z,99.90
2023-04-22T20:57:55.592Z,99.90
2023-04-22T21:00:23.091Z,99.90
2023-04-22T21:02:51.066Z,99.90
2023-04-22T21:05:19.353Z,99.90
2023-04-22T21:07:49.293Z,99.90
2023-04-22T21:10:17.277Z,99.90
2023-04-22T21:12:44.706Z,99.90
2023-04-22T21:15:12.828Z,99.90
2023-04-22T21:17:51.727Z,99.90
2023-04-22T21:20:21.860Z,99.90
2023-04-22T21:22:49.279Z,99.90
2023-04-22T21:25:21.644Z,99.90
2023-04-22T21:27:49.111Z,99.90
2023-04-22T21:30:17.139Z,99.90
2023-04-22T21:32:44.340Z,99.90
2023-04-22T21:35:11.844Z,99.90
2023-04-22T21:37:39.082Z,99.90
2023-04-22T21:40:10.815Z,99.90
2023-04-22T21:42:37.941Z,99.90
2023-04-22T21:45:06.108Z,99.90
2023-04-22T21:47:33.279Z,99.90
2023-04-22T21:50:00.985Z,99.90
2023-04-22T21:52:28.208Z,99.90
2023-04-22T21:54:55.962Z,99.90
2023-04-22T21:57:23.298Z,99.90
2023-04-22T21:59:50.684Z,99.90
2023-04-22T22:02:17.830Z,99.90
2023-04-22T22:04:45.875Z,99.90
2023-04-22T22:07:14.736Z,99.90
2023-04-22T22:09:43.356Z,99.90
2023-04-22T22:12:12.156Z,99.90
2023-04-22T22:14:39.688Z,99.90
2023-04-22T22:17:08.444Z,99.90
2023-04-22T22:19:35.947Z,99.90
2023-04-22T22:22:03.103Z,99.90
2023-04-22T22:24:30.510Z,99.90
2023-04-22T22:26:57.952Z,99.90
2023-04-22T22:29:25.333Z,99.90
2023-04-22T22:31:52.510Z,99.90
2023-04-22T22:34:19.788Z,99.90
2023-04-22T22:36:47.000Z,99.90
2023-04-22T22:39:16.212Z,99.90
2023-04-22T22:41:44.278Z,99.90
2023-04-22T22:44:11.540Z,99.90
2023-04-22T22:46:40.349Z,99.90
2023-04-22T22:49:08.540Z,99.90
2023-04-22T22:51:37.569Z,99.90
2023-04-22T22:54:05.414Z,99.90
2023-04-22T22:56:32.542Z,99.90
2023-04-22T22:59:00.618Z,99.90
2023-04-22T23:01:27.737Z,99.90
2023-04-22T23:03:55.423Z,99.90
2023-04-22T23:06:22.852Z,99.90
2023-04-22T23:08:50.108Z,99.90
2023-04-22T23:11:17.132Z,99.90
2023-04-22T23:13:44.447Z,99.90
2023-04-22T23:16:11.545Z,99.90
2023-04-22T23:18:39.751Z,99.90
2023-04-22T23:21:07.192Z,99.90
2023-04-22T23:23:37.163Z,99.90
2023-04-22T23:26:04.481Z,99.90
2023-04-22T23:28:32.535Z,99.90
2023-04-22T23:31:03.251Z,99.90
2023-04-22T23:33:34.745Z,99.90
2023-04-22T23:36:05.398Z,99.90
2023-04-22T23:38:32.934Z,99.90
2023-04-22T23:40:59.930Z,99.90
2023-04-22T23:43:27.617Z,99.90
2023-04-22T23:45:54.730Z,99.90
2023-04-22T23:48:22.113Z,99.90
2023-04-22T23:50:49.210Z,99.90
2023-04-22T23:53:16.568Z,99.90
2023-04-22T23:55:43.840Z,99.90
2023-04-22T23:58:11.339Z,99.90
